createdAt,value
2022-12-15T00:00:30.190Z,85.70
2022-12-15T00:03:16.853Z,85.71
2022-12-15T00:06:03.426Z,86.00
2022-12-15T00:08:49.941Z,86.06
2022-12-15T00:11:36.905Z,85.79
2022-12-15T00:14:24.080Z,84.77
2022-12-15T00:17:10.682Z,84.60
2022-12-15T00:19:57.228Z,84.78
2022-12-15T00:22:44.151Z,84.65
2022-12-15T00:25:30.816Z,84.50
2022-12-15T00:28:17.330Z,80.65
2022-12-15T00:31:04.045Z,82.43
2022-12-15T00:33:50.522Z,83.00
2022-12-15T00:36:37.275Z,82.12
2022-12-15T00:39:06.529Z,80.77
2022-12-15T00:41:34.854Z,79.65
2022-12-15T00:44:03.236Z,78.69
2022-12-15T00:46:50.019Z,78.61
2022-12-15T00:49:36.504Z,79.63
2022-12-15T00:52:23.011Z,78.62
2022-12-15T00:55:09.595Z,78.33
2022-12-15T00:57:56.649Z,79.20
2022-12-15T01:00:43.125Z,77.61
2022-12-15T01:03:34.388Z,78.02
2022-12-15T01:06:29.495Z,77.27
2022-12-15T01:09:16.484Z,76.67
2022-12-15T01:12:03.803Z,76.65
2022-12-15T01:14:51.791Z,76.50
2022-12-15T01:17:38.711Z,76.62
2022-12-15T01:20:20.104Z,76.91
2022-12-15T01:22:54.703Z,76.22
2022-12-15T01:25:26.162Z,75.68
2022-12-15T01:27:55.136Z,75.35
2022-12-15T01:30:26.091Z,75.78
2022-12-15T01:32:54.883Z,74.52
2022-12-15T01:35:23.466Z,74.78
2022-12-15T01:37:51.774Z,74.30
2022-12-15T01:40:40.266Z,74.91
2022-12-15T01:43:21.794Z,74.44
2022-12-15T01:45:57.659Z,74.12
2022-12-15T01:48:31.752Z,74.07
2022-12-15T01:51:17.305Z,72.74
2022-12-15T01:54:04.952Z,72.91
2022-12-15T01:56:38.291Z,73.18
2022-12-15T01:59:12.597Z,71.43
2022-12-15T02:01:41.350Z,72.58
2022-12-15T02:04:10.368Z,72.80
2022-12-15T02:06:38.894Z,72.77
2022-12-15T02:09:07.368Z,72.54
2022-12-15T02:11:50.603Z,72.73
2022-12-15T02:14:45.654Z,72.01
2022-12-15T02:17:13.937Z,71.21
2022-12-15T02:20:00.346Z,70.76
2022-12-15T02:23:09.885Z,70.57
2022-12-15T02:26:12.749Z,68.94
2022-12-15T02:28:59.010Z,67.36
2022-12-15T02:31:51.603Z,67.69
2022-12-15T02:34:59.293Z,66.82
2022-12-15T02:37:39.269Z,66.82
2022-12-15T02:40:10.971Z,65.62
2022-12-15T02:42:46.914Z,65.07
2022-12-15T02:45:18.113Z,65.00
2022-12-15T02:47:55.195Z,65.83
2022-12-15T02:50:47.905Z,66.70
2022-12-15T02:53:48.801Z,64.41
2022-12-15T02:56:19.804Z,63.85
2022-12-15T02:58:59.363Z,64.16
2022-12-15T03:01:46.652Z,63.82
2022-12-15T03:04:15.242Z,60.27
2022-12-15T03:06:43.932Z,61.85
2022-12-15T03:09:12.289Z,62.47
2022-12-15T03:11:40.741Z,60.57
2022-12-15T03:14:09.086Z,59.24
2022-12-15T03:16:37.423Z,61.73
2022-12-15T03:19:05.756Z,62.67
2022-12-15T03:21:34.068Z,60.64
2022-12-15T03:24:02.376Z,61.10
2022-12-15T03:26:30.655Z,56.96
2022-12-15T03:28:58.973Z,59.25
2022-12-15T03:31:27.964Z,58.49
2022-12-15T03:33:59.214Z,59.38
2022-12-15T03:36:27.491Z,58.70
2022-12-15T03:38:55.775Z,59.24
2022-12-15T03:41:24.045Z,58.17
2022-12-15T03:43:52.331Z,56.72
2022-12-15T03:46:20.688Z,59.53
2022-12-15T03:48:49.019Z,54.27
2022-12-15T03:51:17.384Z,53.17
2022-12-15T03:53:45.688Z,56.79
2022-12-15T03:56:14.612Z,56.16
2022-12-15T03:58:42.926Z,55.83
2022-12-15T04:01:23.086Z,57.24
2022-12-15T04:03:55.511Z,54.40
2022-12-15T04:06:27.216Z,55.36
2022-12-15T04:08:55.514Z,55.56
2022-12-15T04:11:25.955Z,54.87
2022-12-15T04:13:54.287Z,55.73
2022-12-15T04:16:22.695Z,54.40
2022-12-15T04:19:10.963Z,55.97
2022-12-15T04:21:39.288Z,52.33
2022-12-15T04:24:26.162Z,53.53
2022-12-15T04:27:12.706Z,51.21
2022-12-15T04:29:59.301Z,50.40
2022-12-15T04:32:50.056Z,52.42
2022-12-15T04:35:37.168Z,51.23
2022-12-15T04:38:23.906Z,52.36
2022-12-15T04:41:10.598Z,53.14
2022-12-15T04:43:57.576Z,50.47
2022-12-15T04:46:44.116Z,51.15
2022-12-15T04:49:30.692Z,54.18
2022-12-15T04:52:17.775Z,50.57
2022-12-15T04:55:04.539Z,51.62
2022-12-15T04:57:51.165Z,51.56
2022-12-15T05:00:37.850Z,50.09
2022-12-15T05:03:27.163Z,49.08
2022-12-15T05:06:13.608Z,49.04
2022-12-15T05:09:00.264Z,48.72
2022-12-15T05:11:46.807Z,47.16
2022-12-15T05:14:33.506Z,49.05
2022-12-15T05:17:20.150Z,47.60
2022-12-15T05:20:06.804Z,50.18
2022-12-15T05:22:53.835Z,48.28
2022-12-15T05:25:40.977Z,50.01
2022-12-15T05:28:27.843Z,49.14
2022-12-15T05:31:14.400Z,49.66
2022-12-15T05:33:42.835Z,49.05
2022-12-15T05:36:11.386Z,49.65
2022-12-15T05:38:39.711Z,51.31
2022-12-15T05:41:08.353Z,49.69
2022-12-15T05:43:36.677Z,49.71
2022-12-15T05:46:06.102Z,49.27
2022-12-15T05:48:34.445Z,49.24
2022-12-15T05:51:08.434Z,48.66
2022-12-15T05:53:38.791Z,49.52
2022-12-15T05:56:10.490Z,45.87
2022-12-15T05:58:44.831Z,46.17
2022-12-15T06:01:18.677Z,46.53
2022-12-15T06:03:48.467Z,48.03
2022-12-15T06:06:16.801Z,47.09
2022-12-15T06:08:45.510Z,47.51
2022-12-15T06:11:20.834Z,45.90
2022-12-15T06:13:49.867Z,48.28
2022-12-15T06:16:22.790Z,49.03
2022-12-15T06:18:56.979Z,47.17
2022-12-15T06:21:33.550Z,45.90
2022-12-15T06:24:02.045Z,48.89
2022-12-15T06:26:36.826Z,45.72
2022-12-15T06:29:07.908Z,48.99
2022-12-15T06:31:37.551Z,48.18
2022-12-15T06:34:08.474Z,46.83
2022-12-15T06:36:37.616Z,46.77
2022-12-15T06:39:08.078Z,47.14
2022-12-15T06:41:36.671Z,45.53
2022-12-15T06:44:05.928Z,49.47
2022-12-15T06:46:35.974Z,47.24
2022-12-15T06:49:04.413Z,46.21
2022-12-15T06:51:33.669Z,49.34
2022-12-15T06:54:02.690Z,45.64
2022-12-15T06:56:34.929Z,44.87
2022-12-15T06:59:05.408Z,46.20
2022-12-15T07:01:34.344Z,48.35
2022-12-15T07:04:05.416Z,45.60
2022-12-15T07:06:37.641Z,46.59
2022-12-15T07:09:11.353Z,45.34
2022-12-15T07:11:39.747Z,43.40
2022-12-15T07:14:08.193Z,45.85
2022-12-15T07:16:36.657Z,47.31
2022-12-15T07:19:05.023Z,44.82
2022-12-15T07:21:33.846Z,48.79
2022-12-15T07:24:02.764Z,48.24
2022-12-15T07:26:31.504Z,43.97
2022-12-15T07:28:59.821Z,48.66
2022-12-15T07:31:28.235Z,43.92
2022-12-15T07:33:58.943Z,44.38
2022-12-15T07:36:28.629Z,43.19
2022-12-15T07:39:01.957Z,44.09
2022-12-15T07:41:31.099Z,44.98
2022-12-15T07:43:59.957Z,44.08
2022-12-15T07:46:29.936Z,44.73
2022-12-15T07:48:58.410Z,44.49
2022-12-15T07:51:26.819Z,45.38
2022-12-15T07:53:55.152Z,44.07
2022-12-15T07:56:23.465Z,46.12
2022-12-15T07:58:52.382Z,45.22
2022-12-15T08:01:20.922Z,44.43
2022-12-15T08:03:50.646Z,45.87
2022-12-15T08:06:19.025Z,48.29
2022-12-15T08:08:50.049Z,46.81
2022-12-15T08:11:19.903Z,47.34
2022-12-15T08:14:05.740Z,46.35
2022-12-15T08:16:37.434Z,44.54
2022-12-15T08:19:12.321Z,43.40
2022-12-15T08:21:41.994Z,47.24
2022-12-15T08:24:11.617Z,44.00
2022-12-15T08:26:41.542Z,42.83
2022-12-15T08:32:02.664Z,45.94
2022-12-15T08:34:31.110Z,45.78
2022-12-15T08:36:59.389Z,46.20
2022-12-15T08:39:27.962Z,47.73
2022-12-15T08:41:57.643Z,47.72
2022-12-15T08:44:25.950Z,45.82
2022-12-15T08:46:54.279Z,45.15
2022-12-15T08:49:22.701Z,46.99
2022-12-15T08:51:51.421Z,45.09
2022-12-15T08:54:20.472Z,44.47
2022-12-15T08:56:49.092Z,46.16
2022-12-15T08:59:17.881Z,44.96
2022-12-15T09:01:46.322Z,45.72
2022-12-15T09:04:14.881Z,45.27
2022-12-15T09:06:43.710Z,45.01
2022-12-15T09:09:15.099Z,47.28
2022-12-15T09:11:43.536Z,46.96
2022-12-15T09:14:11.842Z,45.46
2022-12-15T09:16:40.177Z,48.99
2022-12-15T09:19:09.290Z,47.20
2022-12-15T09:21:38.175Z,46.19
2022-12-15T09:24:06.877Z,47.03
2022-12-15T09:26:35.935Z,46.19
2022-12-15T09:29:04.489Z,46.44
2022-12-15T09:31:35.149Z,46.31
2022-12-15T09:34:03.880Z,46.21
2022-12-15T09:36:33.535Z,46.32
2022-12-15T09:39:05.166Z,46.78
2022-12-15T09:41:37.808Z,47.22
2022-12-15T09:44:16.078Z,47.39
2022-12-15T09:47:38.376Z,48.71
2022-12-15T09:50:13.624Z,47.53
2022-12-15T09:52:52.755Z,48.25
2022-12-15T09:55:33.640Z,48.35
2022-12-15T09:58:12.810Z,48.63
2022-12-15T10:00:57.984Z,48.45
2022-12-15T10:03:57.422Z,48.77
2022-12-15T10:06:51.451Z,48.80
2022-12-15T10:09:22.367Z,49.71
2022-12-15T10:11:57.926Z,51.35
2022-12-15T10:14:44.671Z,51.44
2022-12-15T10:17:27.977Z,51.30
2022-12-15T10:20:11.252Z,53.64
2022-12-15T10:22:39.970Z,53.71
2022-12-15T10:25:30.447Z,53.61
2022-12-15T10:28:51.073Z,53.87
2022-12-15T10:31:43.239Z,55.65
2022-12-15T10:34:33.185Z,56.83
2022-12-15T10:37:01.713Z,55.36
2022-12-15T10:39:44.592Z,55.83
2022-12-15T10:42:17.824Z,58.17
2022-12-15T10:44:50.661Z,59.63
2022-12-15T10:47:22.978Z,61.30
2022-12-15T10:49:52.160Z,59.93
2022-12-15T10:52:40.574Z,61.52
2022-12-15T10:55:38.063Z,61.08
2022-12-15T10:58:23.011Z,60.13
2022-12-15T11:01:09.267Z,59.43
2022-12-15T11:03:40.146Z,61.07
2022-12-15T11:06:23.734Z,63.99
2022-12-15T11:09:14.225Z,63.09
2022-12-15T11:12:11.986Z,64.46
2022-12-15T11:14:52.266Z,63.96
2022-12-15T11:17:25.034Z,65.55
2022-12-15T11:20:07.793Z,64.18
2022-12-15T11:22:54.332Z,64.33
2022-12-15T11:25:44.242Z,64.68
2022-12-15T11:28:49.701Z,64.68
2022-12-15T11:31:38.204Z,65.30
2022-12-15T11:34:18.356Z,65.64
2022-12-15T11:36:56.366Z,66.30
2022-12-15T11:39:36.529Z,67.17
2022-12-15T11:42:19.776Z,67.20
2022-12-15T11:45:24.714Z,67.56
2022-12-15T11:48:10.949Z,67.61
2022-12-15T11:51:03.707Z,66.60
2022-12-15T11:53:42.190Z,67.30
2022-12-15T11:56:10.521Z,69.20
2022-12-15T11:58:49.400Z,68.38
2022-12-15T12:01:37.696Z,66.70
2022-12-15T12:04:40.979Z,68.26
2022-12-15T12:07:19.581Z,67.99
2022-12-15T12:10:28.335Z,66.79
2022-12-15T12:13:02.381Z,69.82
2022-12-15T12:15:47.142Z,71.17
2022-12-15T12:18:32.646Z,71.94
2022-12-15T12:21:08.052Z,72.71
2022-12-15T12:23:40.649Z,73.28
2022-12-15T12:26:14.076Z,73.58
2022-12-15T12:28:53.186Z,73.28
2022-12-15T12:31:44.916Z,73.66
2022-12-15T12:34:44.694Z,73.63
2022-12-15T12:37:44.471Z,73.49
2022-12-15T12:40:43.231Z,72.55
2022-12-15T12:43:21.261Z,72.42
2022-12-15T12:46:08.204Z,72.73
2022-12-15T12:48:38.936Z,72.90
2022-12-15T12:51:34.736Z,72.94
2022-12-15T12:54:03.729Z,72.88
2022-12-15T12:56:40.862Z,74.06
2022-12-15T12:59:30.966Z,74.42
2022-12-15T13:02:22.572Z,74.52
2022-12-15T13:05:01.508Z,74.56
2022-12-15T13:07:36.128Z,73.78
2022-12-15T13:10:10.872Z,73.25
2022-12-15T13:13:02.398Z,75.60
2022-12-15T13:15:30.701Z,75.20
2022-12-15T13:18:24.750Z,75.38
2022-12-15T13:20:56.652Z,75.29
2022-12-15T13:23:25.018Z,75.99
2022-12-15T13:25:59.318Z,76.13
2022-12-15T13:28:36.345Z,77.69
2022-12-15T13:31:20.358Z,77.11
2022-12-15T13:33:52.026Z,77.12
2022-12-15T13:36:38.719Z,79.81
2022-12-15T13:39:29.874Z,79.14
2022-12-15T13:44:58.275Z,77.71
2022-12-15T13:47:30.932Z,78.05
2022-12-15T13:50:03.037Z,79.12
2022-12-15T13:55:42.696Z,78.83
2022-12-15T13:58:10.969Z,77.54
2022-12-15T14:00:40.741Z,77.48
2022-12-15T14:03:13.379Z,77.38
2022-12-15T14:05:44.077Z,77.87
2022-12-15T14:08:19.568Z,77.94
2022-12-15T14:10:54.908Z,77.27
2022-12-15T14:13:23.181Z,76.41
2022-12-15T14:16:01.808Z,77.34
2022-12-15T14:18:36.171Z,78.85
2022-12-15T14:21:19.287Z,78.01
2022-12-15T14:24:11.378Z,78.40
2022-12-15T14:26:36.158Z,78.35
2022-12-15T14:29:07.148Z,78.24
2022-12-15T14:31:38.984Z,79.27
2022-12-15T14:34:16.777Z,79.15
2022-12-15T14:36:46.951Z,78.75
2022-12-15T14:39:30.369Z,79.05
2022-12-15T14:42:02.260Z,79.47
2022-12-15T14:44:51.385Z,80.58
2022-12-15T14:47:28.508Z,80.11
2022-12-15T14:49:59.545Z,80.42
2022-12-15T14:52:36.939Z,80.76
2022-12-15T14:55:36.267Z,81.89
2022-12-15T14:58:36.984Z,82.29
2022-12-15T15:01:22.862Z,81.72
2022-12-15T15:04:05.342Z,83.97
2022-12-15T15:06:40.277Z,83.44
2022-12-15T15:09:26.918Z,84.24
2022-12-15T15:12:06.236Z,83.72
2022-12-15T15:14:39.058Z,83.25
2022-12-15T15:17:07.555Z,83.60
2022-12-15T15:19:40.544Z,84.33
2022-12-15T15:22:26.247Z,83.81
2022-12-15T15:24:54.650Z,83.80
2022-12-15T15:27:36.437Z,84.01
2022-12-15T15:30:24.870Z,83.66
2022-12-15T15:32:56.155Z,84.94
2022-12-15T15:35:27.410Z,84.41
2022-12-15T15:38:12.553Z,83.73
2022-12-15T15:40:40.839Z,84.39
2022-12-15T15:43:13.582Z,84.77
2022-12-15T15:45:43.183Z,84.79
2022-12-15T15:48:22.608Z,84.29
2022-12-15T15:50:51.117Z,84.67
2022-12-15T15:53:25.248Z,83.72
2022-12-15T15:55:56.879Z,84.08
2022-12-15T15:58:25.253Z,78.94
2022-12-15T16:00:54.456Z,82.05
2022-12-15T16:03:22.957Z,83.19
2022-12-15T16:05:51.382Z,80.03
2022-12-15T16:08:24.542Z,81.35
2022-12-15T16:10:53.547Z,83.48
2022-12-15T16:13:26.198Z,80.87
2022-12-15T16:15:56.035Z,79.77
2022-12-15T16:18:24.466Z,85.05
2022-12-15T16:20:54.891Z,82.23
2022-12-15T16:23:28.801Z,82.47
2022-12-15T16:25:59.756Z,85.80
2022-12-15T16:28:31.213Z,84.77
2022-12-15T16:31:00.302Z,85.13
2022-12-15T16:33:29.283Z,85.40
2022-12-15T16:35:59.937Z,85.18
2022-12-15T16:38:33.274Z,84.75
2022-12-15T16:41:09.385Z,84.81
2022-12-15T16:43:41.568Z,86.10
2022-12-15T16:46:15.722Z,86.42
2022-12-15T16:48:44.797Z,86.05
2022-12-15T16:51:36.225Z,85.13
2022-12-15T16:54:04.909Z,85.53
2022-12-15T16:56:33.665Z,86.08
2022-12-15T16:59:32.001Z,85.13
2022-12-15T17:01:50.605Z,85.56
2022-12-15T17:04:20.122Z,86.00
2022-12-15T17:06:48.758Z,86.25
2022-12-15T17:09:23.588Z,86.05
2022-12-15T17:11:52.850Z,86.48
2022-12-15T17:14:21.148Z,86.38
2022-12-15T17:16:49.558Z,86.16
2022-12-15T17:19:21.029Z,86.94
2022-12-15T17:21:53.915Z,87.62
2022-12-15T17:24:23.247Z,87.25
2022-12-15T17:26:52.149Z,87.79
2022-12-15T17:29:23.812Z,87.17
2022-12-15T17:31:52.762Z,87.43
2022-12-15T17:34:31.216Z,87.06
2022-12-15T17:37:02.246Z,86.77
2022-12-15T17:39:31.512Z,87.08
2022-12-15T17:42:01.391Z,87.71
2022-12-15T17:44:38.245Z,87.46
2022-12-15T17:47:09.385Z,87.18
2022-12-15T17:49:39.097Z,86.46
2022-12-15T17:52:35.337Z,87.21
2022-12-15T17:55:05.691Z,83.57
2022-12-15T17:57:34.157Z,83.35
2022-12-15T18:00:02.863Z,82.15
2022-12-15T18:02:31.702Z,84.27
2022-12-15T18:05:00.546Z,85.05
2022-12-15T18:07:28.921Z,84.97
2022-12-15T18:09:57.334Z,85.59
2022-12-15T18:12:27.868Z,86.82
2022-12-15T18:14:57.810Z,86.98
2022-12-15T18:17:26.144Z,87.51
2022-12-15T18:19:54.488Z,87.91
2022-12-15T18:22:25.439Z,87.36
2022-12-15T18:24:55.365Z,87.90
2022-12-15T18:27:28.399Z,89.47
2022-12-15T18:30:00.623Z,88.11
2022-12-15T18:32:30.819Z,88.69
2022-12-15T18:34:59.335Z,89.21
2022-12-15T18:37:29.057Z,89.20
2022-12-15T18:40:03.975Z,88.98
2022-12-15T18:42:33.263Z,89.42
2022-12-15T18:45:03.214Z,89.79
2022-12-15T18:47:31.686Z,89.65
2022-12-15T18:49:59.987Z,89.31
2022-12-15T18:52:34.295Z,89.15
2022-12-15T18:55:03.148Z,88.67
2022-12-15T18:57:34.688Z,88.83
2022-12-15T19:00:15.336Z,87.95
2022-12-15T19:02:44.242Z,88.69
2022-12-15T19:05:28.314Z,88.36
2022-12-15T19:08:12.352Z,88.17
2022-12-15T19:10:53.239Z,88.25
2022-12-15T19:13:24.307Z,88.05
2022-12-15T19:15:54.368Z,87.56
2022-12-15T19:18:42.999Z,87.99
2022-12-15T19:21:42.350Z,87.92
2022-12-15T19:24:45.892Z,88.34
2022-12-15T19:27:17.098Z,88.81
2022-12-15T19:29:46.092Z,88.72
2022-12-15T19:32:14.789Z,89.51
2022-12-15T19:34:43.277Z,88.78
2022-12-15T19:37:29.210Z,88.82
2022-12-15T19:40:00.107Z,88.30
2022-12-15T19:42:38.014Z,88.39
2022-12-15T19:45:24.426Z,88.31
2022-12-15T19:47:52.911Z,88.41
2022-12-15T19:50:26.833Z,88.19
2022-12-15T19:53:03.131Z,88.31
2022-12-15T19:55:34.969Z,88.37
2022-12-15T19:58:27.418Z,88.69
2022-12-15T20:00:59.208Z,88.63
2022-12-15T20:03:30.004Z,89.02
2022-12-15T20:06:00.283Z,88.56
2022-12-15T20:08:34.604Z,88.94
2022-12-15T20:11:03.079Z,88.80
2022-12-15T20:13:32.146Z,88.80
2022-12-15T20:16:00.777Z,88.84
2022-12-15T20:18:29.329Z,88.72
2022-12-15T20:20:57.956Z,88.58
2022-12-15T20:23:29.975Z,88.76
2022-12-15T20:25:59.217Z,88.79
2022-12-15T20:28:29.953Z,88.67
2022-12-15T20:30:59.214Z,88.58
2022-12-15T20:33:27.592Z,88.42
2022-12-15T20:35:55.883Z,88.24
2022-12-15T20:38:35.741Z,87.83
2022-12-15T20:41:04.904Z,87.24
2022-12-15T20:43:35.574Z,87.16
2022-12-15T20:46:06.891Z,87.47
2022-12-15T20:48:37.603Z,88.01
2022-12-15T20:51:10.004Z,87.72
2022-12-15T20:53:39.916Z,87.81
2022-12-15T20:56:09.054Z,88.25
2022-12-15T20:58:40.856Z,87.98
2022-12-15T21:01:25.045Z,87.84
2022-12-15T21:03:56.720Z,87.83
2022-12-15T21:06:27.405Z,87.91
2022-12-15T21:08:56.557Z,88.12
2022-12-15T21:11:28.380Z,88.09
2022-12-15T21:13:59.782Z,88.66
2022-12-15T21:16:30.728Z,88.07
2022-12-15T21:21:52.259Z,88.11
2022-12-15T21:24:26.571Z,87.85
2022-12-15T21:26:55.216Z,88.10
2022-12-15T21:29:26.410Z,88.17
2022-12-15T21:31:54.761Z,86.56
2022-12-15T21:34:23.114Z,88.53
2022-12-15T21:36:55.028Z,87.98
2022-12-15T21:39:37.884Z,88.46
2022-12-15T21:42:13.187Z,88.85
2022-12-15T21:44:42.539Z,89.12
2022-12-15T21:47:51.923Z,88.67
2022-12-15T21:50:21.093Z,88.92
2022-12-15T21:52:49.959Z,88.99
2022-12-15T21:55:22.302Z,89.17
2022-12-15T21:57:51.678Z,89.03
2022-12-15T22:00:20.730Z,88.83
2022-12-15T22:02:50.956Z,88.79
2022-12-15T22:05:31.505Z,88.76
2022-12-15T22:08:12.049Z,88.43
2022-12-15T22:10:40.677Z,88.83
2022-12-15T22:13:17.530Z,88.89
2022-12-15T22:15:46.240Z,88.83
2022-12-15T22:18:20.572Z,88.44
2022-12-15T22:20:50.837Z,88.92
2022-12-15T22:23:20.509Z,88.96
2022-12-15T22:25:52.429Z,88.96
2022-12-15T22:28:26.499Z,89.02
2022-12-15T22:30:57.129Z,89.18
2022-12-15T22:33:27.297Z,88.89
2022-12-15T22:35:57.079Z,89.32
2022-12-15T22:38:25.986Z,89.33
2022-12-15T22:40:58.474Z,89.53
2022-12-15T22:43:32.986Z,89.37
2022-12-15T22:46:01.942Z,89.78
2022-12-15T22:48:35.144Z,89.24
2022-12-15T22:51:05.236Z,89.42
2022-12-15T22:53:36.716Z,89.23
2022-12-15T22:56:08.760Z,87.97
2022-12-15T22:58:44.103Z,88.04
2022-12-15T23:01:13.190Z,88.57
2022-12-15T23:03:41.545Z,88.34
2022-12-15T23:06:09.959Z,89.32
2022-12-15T23:08:38.265Z,87.47
2022-12-15T23:11:25.048Z,86.98
2022-12-15T23:13:53.333Z,87.84
2022-12-15T23:16:23.324Z,87.68
2022-12-15T23:18:56.535Z,88.98
2022-12-15T23:21:25.879Z,89.21
2022-12-15T23:23:54.245Z,89.06
2022-12-15T23:26:24.717Z,89.25
2022-12-15T23:28:55.260Z,89.45
2022-12-15T23:31:24.101Z,89.35
2022-12-15T23:33:52.455Z,89.82
2022-12-15T23:36:21.062Z,90.13
2022-12-15T23:38:49.453Z,90.23
2022-12-15T23:41:19.477Z,91.01
2022-12-15T23:43:48.050Z,90.42
2022-12-15T23:46:16.463Z,90.66
2022-12-15T23:48:45.663Z,90.62
2022-12-15T23:51:19.353Z,90.78
2022-12-15T23:53:48.946Z,90.82
2022-12-15T23:56:19.998Z,90.93
2022-12-15T23:58:50.107Z,90.66
